Weather Data

Pearl Creek Farm: 8878 N Farm Road 75, Walnut Grove MO 65770

<== Previous Day (Monday 04 Apr 2016) | Next Day (Wednesday 06 Apr 2016) ==>

Summary Precipitation Data For Tuesday 05 April 2016

ElementValueUnits
Precipitation0"
Notes(none)
SourcePearl Creek Farm

Summary Temperature Data For Tuesday 05 April 2016

ElementValueUnits
High Temperature71 oF
Low Temperature47 oF
Average Temperature59 oF
High Humidity60 %
Low Humidity35 %
Average Humidity48 %
SourceSpringfield-Branson National Airport (SGF)

Detail Temperature Data For Tuesday 05 April 2016

Date / TimeTemp (F)RH (%)Dew Pt (F)Report Date / TimeSource
2016-04-05 00:52:00 51 48 32.0 2017-12-29 17:00:26.17417 Springfield-Branson National Airport (SGF)
2016-04-05 01:52:00 50 50 32.0 2017-12-29 17:00:26.17417 Springfield-Branson National Airport (SGF)
2016-04-05 02:52:00 48 54 32.0 2017-12-29 17:00:26.17417 Springfield-Branson National Airport (SGF)
2016-04-05 03:52:00 47 56 32.0 2017-12-29 17:00:26.17417 Springfield-Branson National Airport (SGF)
2016-04-05 04:52:00 47 56 32.0 2017-12-29 17:00:26.17417 Springfield-Branson National Airport (SGF)
2016-04-05 05:52:00 48 54 32.0 2017-12-29 17:00:26.17417 Springfield-Branson National Airport (SGF)
2016-04-05 06:52:00 49 56 34.0 2017-12-29 17:00:26.17417 Springfield-Branson National Airport (SGF)
2016-04-05 07:52:00 51 56 36.0 2017-12-29 17:00:26.17417 Springfield-Branson National Airport (SGF)
2016-04-05 08:52:00 54 53 37.0 2017-12-29 17:00:26.17417 Springfield-Branson National Airport (SGF)
2016-04-05 09:52:00 57 49 38.0 2017-12-29 17:00:26.17417 Springfield-Branson National Airport (SGF)
2016-04-05 10:52:00 60 47 40.0 2017-12-29 17:00:26.17417 Springfield-Branson National Airport (SGF)
2016-04-05 11:52:00 64 41 40.0 2017-12-29 17:00:26.17417 Springfield-Branson National Airport (SGF)
2016-04-05 12:52:00 66 39 40.0 2017-12-29 17:00:26.17417 Springfield-Branson National Airport (SGF)
2016-04-05 13:52:00 69 36 41.0 2017-12-29 17:00:26.17417 Springfield-Branson National Airport (SGF)
2016-04-05 14:52:00 70 35 41.0 2017-12-29 17:00:26.17417 Springfield-Branson National Airport (SGF)
2016-04-05 15:52:00 71 35 42.0 2017-12-29 17:00:26.17417 Springfield-Branson National Airport (SGF)
2016-04-05 16:52:00 69 36 41.0 2017-12-29 17:00:26.17417 Springfield-Branson National Airport (SGF)
2016-04-05 17:52:00 68 38 41.0 2017-12-29 17:00:26.17417 Springfield-Branson National Airport (SGF)
2016-04-05 18:52:00 66 40 41.0 2017-12-29 17:00:26.17417 Springfield-Branson National Airport (SGF)
2016-04-05 19:52:00 64 43 41.0 2017-12-29 17:00:26.17417 Springfield-Branson National Airport (SGF)
2016-04-05 20:52:00 61 48 41.0 2017-12-29 17:00:26.17417 Springfield-Branson National Airport (SGF)
2016-04-05 21:52:00 59 54 42.0 2017-12-29 17:00:26.17417 Springfield-Branson National Airport (SGF)
2016-04-05 22:52:00 58 56 42.0 2017-12-29 17:00:26.17417 Springfield-Branson National Airport (SGF)
2016-04-05 23:52:00 57 60 43.0 2017-12-29 17:00:26.17417 Springfield-Branson National Airport (SGF)

A total of 24 rows are displayed.